createdAt,value
2018-11-14T00:00:19.772Z,96.20
2018-11-14T00:02:47.946Z,96.20
2018-11-14T00:05:16.429Z,96.30
2018-11-14T00:07:44.650Z,96.30
2018-11-14T00:10:12.933Z,96.20
2018-11-14T00:12:41.094Z,96.20
2018-11-14T00:15:13.520Z,96.20
2018-11-14T00:17:42.607Z,96.30
2018-11-14T00:20:11.398Z,96.30
2018-11-14T00:22:40.386Z,96.30
2018-11-14T00:25:08.596Z,96.30
2018-11-14T00:27:36.894Z,96.30
2018-11-14T00:30:07.151Z,96.30
2018-11-14T00:32:35.333Z,96.30
2018-11-14T00:35:03.526Z,96.30
2018-11-14T00:37:31.706Z,96.40
2018-11-14T00:39:59.902Z,96.40
2018-11-14T00:42:28.093Z,96.30
2018-11-14T00:44:56.278Z,96.40
2018-11-14T00:47:24.471Z,96.40
2018-11-14T00:49:52.658Z,96.40
2018-11-14T00:52:20.843Z,96.70
2018-11-14T00:54:49.079Z,96.40
2018-11-14T00:57:17.254Z,96.50
2018-11-14T00:59:45.454Z,96.50
2018-11-14T01:02:13.639Z,96.70
2018-11-14T01:04:41.852Z,96.50
2018-11-14T01:07:10.043Z,96.50
2018-11-14T01:09:38.446Z,96.50
2018-11-14T01:12:06.622Z,96.50
2018-11-14T01:14:34.803Z,96.50
2018-11-14T01:17:02.980Z,96.60
2018-11-14T01:19:31.150Z,96.60
2018-11-14T01:21:59.319Z,96.60
2018-11-14T01:24:27.498Z,96.60
2018-11-14T01:26:55.675Z,96.50
2018-11-14T01:29:23.837Z,96.50
2018-11-14T01:31:52.082Z,96.50
2018-11-14T01:34:20.255Z,96.50
2018-11-14T01:36:48.414Z,96.50
2018-11-14T01:39:16.602Z,96.40
2018-11-14T01:41:44.778Z,96.40
2018-11-14T01:44:12.951Z,96.50
2018-11-14T01:46:41.130Z,96.50
2018-11-14T01:49:10.054Z,96.50
2018-11-14T01:51:38.237Z,96.70
2018-11-14T01:54:06.402Z,96.50
2018-11-14T01:56:34.584Z,96.50
2018-11-14T01:59:02.738Z,96.50
2018-11-14T02:01:30.939Z,96.70
2018-11-14T02:03:59.101Z,96.50
2018-11-14T02:06:27.281Z,96.40
2018-11-14T02:08:55.433Z,96.40
2018-11-14T02:11:23.607Z,96.50
2018-11-14T02:13:51.783Z,96.50
2018-11-14T02:16:19.959Z,96.50
2018-11-14T02:18:48.127Z,96.50
2018-11-14T02:21:16.295Z,96.50
2018-11-14T02:23:44.446Z,96.50
2018-11-14T02:26:12.631Z,96.80
2018-11-14T02:28:40.798Z,96.50
2018-11-14T02:31:08.975Z,96.50
2018-11-14T02:33:37.134Z,96.50
2018-11-14T02:36:05.315Z,96.60
2018-11-14T02:38:33.480Z,96.60
2018-11-14T02:41:01.646Z,96.60
2018-11-14T02:43:29.814Z,96.60
2018-11-14T02:45:57.991Z,96.60
2018-11-14T02:48:26.150Z,96.60
2018-11-14T02:51:05.815Z,96.50
2018-11-14T02:53:33.971Z,96.50
2018-11-14T02:56:06.578Z,96.50
2018-11-14T02:58:34.759Z,96.60
2018-11-14T03:01:02.943Z,96.60
2018-11-14T03:03:31.098Z,96.60
2018-11-14T03:05:59.259Z,96.50
2018-11-14T03:08:27.422Z,96.50
2018-11-14T03:10:55.605Z,96.60
2018-11-14T03:13:23.782Z,96.60
2018-11-14T03:15:51.974Z,96.60
2018-11-14T03:18:20.152Z,96.70
2018-11-14T03:20:48.352Z,96.70
2018-11-14T03:23:16.534Z,96.60
2018-11-14T03:25:44.714Z,96.60
2018-11-14T03:28:12.911Z,96.70
2018-11-14T03:30:41.091Z,96.70
2018-11-14T03:33:09.269Z,96.70
2018-11-14T03:35:42.963Z,96.70
2018-11-14T03:38:11.150Z,96.70
2018-11-14T03:40:39.335Z,96.70
2018-11-14T03:43:07.518Z,96.70
2018-11-14T03:45:35.704Z,96.70
2018-11-14T03:48:03.862Z,96.70
2018-11-14T03:50:32.031Z,96.70
2018-11-14T03:53:00.178Z,96.70
2018-11-14T03:55:28.336Z,96.80
2018-11-14T03:57:56.486Z,96.80
2018-11-14T04:00:24.651Z,96.90
2018-11-14T04:02:52.815Z,96.90
2018-11-14T04:05:21.020Z,97.10
2018-11-14T04:07:49.135Z,97.30
2018-11-14T04:10:17.290Z,97.10
2018-11-14T04:12:45.468Z,97.10
2018-11-14T04:15:14.619Z,97.10
2018-11-14T04:17:42.778Z,97.20
2018-11-14T04:20:13.060Z,97.30
2018-11-14T04:22:41.268Z,97.30
2018-11-14T04:25:12.579Z,97.30
2018-11-14T04:27:41.333Z,97.40
2018-11-14T04:30:12.466Z,97.40
2018-11-14T04:32:40.960Z,97.40
2018-11-14T04:35:10.347Z,97.40
2018-11-14T04:37:38.685Z,97.40
2018-11-14T04:40:08.747Z,97.60
2018-11-14T04:42:37.111Z,97.30
2018-11-14T04:45:06.811Z,97.60
2018-11-14T04:47:35.100Z,97.30
2018-11-14T04:50:03.263Z,97.40
2018-11-14T04:52:31.439Z,97.40
2018-11-14T04:54:59.682Z,97.40
2018-11-14T04:57:27.854Z,97.40
2018-11-14T04:59:56.007Z,97.40
2018-11-14T05:02:24.202Z,97.40
2018-11-14T05:04:52.314Z,97.40
2018-11-14T05:07:20.482Z,97.40
2018-11-14T05:09:48.642Z,97.40
2018-11-14T05:12:16.811Z,97.40
2018-11-14T05:14:44.986Z,97.40
2018-11-14T05:17:13.141Z,97.40
2018-11-14T05:19:41.314Z,97.40
2018-11-14T05:22:09.482Z,97.40
2018-11-14T05:24:37.688Z,97.40
2018-11-14T05:27:05.954Z,97.40
2018-11-14T05:29:34.122Z,97.40
2018-11-14T05:32:02.316Z,97.40
2018-11-14T05:34:30.452Z,97.30
2018-11-14T05:36:58.635Z,97.20
2018-11-14T05:39:26.830Z,97.20
2018-11-14T05:41:54.974Z,97.10
2018-11-14T05:44:23.169Z,97.10
2018-11-14T05:46:51.323Z,97.10
2018-11-14T05:49:19.497Z,97.10
2018-11-14T05:51:47.659Z,96.90
2018-11-14T05:54:15.825Z,96.70
2018-11-14T05:56:43.994Z,96.70
2018-11-14T05:59:12.170Z,96.60
2018-11-14T06:01:40.335Z,96.70
2018-11-14T06:04:09.326Z,96.60
2018-11-14T06:06:37.482Z,96.50
2018-11-14T06:09:08.710Z,96.50
2018-11-14T06:11:36.866Z,96.40
2018-11-14T06:14:05.269Z,96.40
2018-11-14T06:16:33.431Z,96.40
2018-11-14T06:19:01.611Z,96.30
2018-11-14T06:21:29.775Z,96.30
2018-11-14T06:23:58.015Z,96.30
2018-11-14T06:26:26.166Z,96.30
2018-11-14T06:28:54.338Z,96.30
2018-11-14T06:31:22.508Z,96.30
2018-11-14T06:33:50.674Z,96.30
2018-11-14T06:36:18.836Z,96.30
2018-11-14T06:38:47.028Z,96.50
2018-11-14T06:41:15.186Z,96.40
2018-11-14T06:43:43.372Z,96.50
2018-11-14T06:46:11.534Z,96.60
2018-11-14T06:48:39.699Z,96.80
2018-11-14T06:51:07.874Z,97.20
2018-11-14T06:53:36.043Z,97.10
2018-11-14T06:56:04.226Z,97.40
2018-11-14T06:58:32.425Z,97.30
2018-11-14T07:01:00.558Z,97.30
2018-11-14T07:03:28.793Z,97.40
2018-11-14T07:05:57.105Z,97.40
2018-11-14T07:08:25.213Z,97.50
2018-11-14T07:10:53.464Z,97.60
2018-11-14T07:13:21.582Z,97.60
2018-11-14T07:15:49.754Z,97.50
2018-11-14T07:18:17.930Z,97.40
2018-11-14T07:20:46.238Z,97.30
2018-11-14T07:23:14.423Z,97.20
2018-11-14T07:25:42.613Z,97.10
2018-11-14T07:28:10.786Z,97.00
2018-11-14T07:30:38.978Z,96.70
2018-11-14T07:33:08.395Z,96.60
2018-11-14T07:35:36.674Z,96.50
2018-11-14T07:38:29.864Z,96.30
2018-11-14T07:40:58.129Z,95.90
2018-11-14T07:43:26.411Z,95.70
2018-11-14T07:45:54.624Z,95.60
2018-11-14T07:48:22.928Z,95.70
2018-11-14T07:50:51.151Z,95.40
2018-11-14T07:53:19.612Z,95.10
2018-11-14T07:55:47.827Z,94.50
2018-11-14T07:58:16.095Z,94.00
2018-11-14T08:00:44.295Z,93.10
2018-11-14T08:03:12.809Z,93.20
2018-11-14T08:05:41.035Z,93.00
2018-11-14T08:08:09.357Z,93.00
2018-11-14T08:10:37.519Z,92.60
2018-11-14T08:13:05.831Z,92.20
2018-11-14T08:15:34.136Z,92.10
2018-11-14T08:18:02.373Z,91.80
2018-11-14T08:20:30.572Z,91.70
2018-11-14T08:22:58.825Z,91.40
2018-11-14T08:25:27.087Z,91.60
2018-11-14T08:27:55.638Z,90.70
2018-11-14T08:30:23.982Z,90.40
2018-11-14T08:32:52.303Z,90.00
2018-11-14T08:35:20.747Z,88.60
2018-11-14T08:37:49.001Z,88.70
2018-11-14T08:40:17.203Z,88.90
2018-11-14T08:42:45.421Z,86.80
2018-11-14T08:45:13.642Z,87.60
2018-11-14T08:47:42.199Z,86.90
2018-11-14T08:50:12.738Z,86.10
2018-11-14T08:52:42.165Z,85.40
2018-11-14T08:55:11.426Z,85.50
2018-11-14T08:57:40.638Z,83.80
2018-11-14T09:00:14.634Z,83.40
2018-11-14T09:02:43.528Z,82.20
2018-11-14T09:05:11.925Z,82.50
2018-11-14T09:07:40.168Z,79.60
2018-11-14T09:10:11.108Z,80.00
2018-11-14T09:12:40.219Z,79.50
2018-11-14T09:15:09.983Z,79.80
2018-11-14T09:17:38.139Z,80.90
2018-11-14T09:20:07.680Z,81.80
2018-11-14T09:22:36.030Z,83.10
2018-11-14T09:25:04.630Z,86.00
2018-11-14T09:27:32.751Z,86.90
2018-11-14T09:30:00.956Z,87.30
2018-11-14T09:32:29.168Z,86.00
2018-11-14T09:34:57.451Z,86.60
2018-11-14T09:37:25.652Z,87.10
2018-11-14T09:39:53.860Z,87.00
2018-11-14T09:42:22.075Z,87.00
2018-11-14T09:44:50.284Z,87.30
2018-11-14T09:47:18.555Z,87.40
2018-11-14T09:49:46.755Z,86.70
2018-11-14T09:52:15.192Z,86.40
2018-11-14T09:54:43.381Z,85.90
2018-11-14T09:57:11.591Z,85.90
2018-11-14T09:59:39.838Z,86.50
2018-11-14T10:02:08.046Z,85.90
2018-11-14T10:04:36.287Z,85.60
2018-11-14T10:07:04.529Z,85.00
2018-11-14T10:09:32.735Z,84.60
2018-11-14T10:12:00.947Z,84.90
2018-11-14T10:14:29.146Z,83.20
2018-11-14T10:16:57.331Z,84.00
2018-11-14T10:19:25.526Z,84.40
2018-11-14T10:21:53.739Z,83.80
2018-11-14T10:24:21.943Z,83.30
2018-11-14T10:26:50.151Z,83.60
2018-11-14T10:29:18.374Z,83.10
2018-11-14T10:31:46.688Z,82.30
2018-11-14T10:34:14.911Z,83.10
2018-11-14T10:36:43.111Z,82.70
2018-11-14T10:39:11.921Z,81.00
2018-11-14T10:41:40.487Z,80.70
2018-11-14T10:44:09.054Z,81.10
2018-11-14T10:46:37.287Z,80.60
2018-11-14T10:49:05.782Z,79.60
2018-11-14T10:51:33.963Z,78.10
2018-11-14T10:54:02.296Z,74.50
2018-11-14T10:56:30.499Z,72.80
2018-11-14T10:58:58.776Z,69.90
2018-11-14T11:01:32.478Z,67.50
2018-11-14T11:04:05.898Z,65.60
2018-11-14T11:06:39.698Z,64.80
2018-11-14T11:09:15.788Z,62.40
2018-11-14T11:11:49.435Z,61.80
2018-11-14T11:14:23.111Z,59.90
2018-11-14T11:16:56.643Z,58.70
2018-11-14T11:19:27.163Z,58.40
2018-11-14T11:21:55.352Z,58.20
2018-11-14T11:24:23.896Z,55.10
2018-11-14T11:26:52.061Z,54.30
2018-11-14T11:29:20.291Z,52.70
2018-11-14T11:31:48.538Z,47.50
2018-11-14T11:34:16.742Z,41.20
2018-11-14T11:36:44.948Z,40.40
2018-11-14T11:39:15.092Z,42.60
2018-11-14T11:41:43.974Z,45.10
2018-11-14T11:44:12.223Z,44.20
2018-11-14T11:46:41.452Z,46.30
2018-11-14T11:49:10.171Z,47.70
2018-11-14T11:51:38.381Z,49.20
2018-11-14T11:54:07.462Z,52.20
2018-11-14T11:56:35.752Z,54.40
2018-11-14T11:59:04.059Z,58.00
2018-11-14T12:01:32.284Z,59.40
2018-11-14T12:04:00.505Z,62.00
2018-11-14T12:06:28.793Z,63.50
2018-11-14T12:08:56.958Z,66.30
2018-11-14T12:11:24.462Z,67.10
2018-11-14T12:13:52.883Z,68.90
2018-11-14T12:16:21.038Z,71.40
2018-11-14T12:18:49.226Z,73.70
2018-11-14T12:21:17.438Z,75.40
2018-11-14T12:23:45.707Z,77.20
2018-11-14T12:26:13.837Z,76.90
2018-11-14T12:28:42.032Z,77.90
2018-11-14T12:31:10.476Z,79.30
2018-11-14T12:33:38.399Z,81.00
2018-11-14T12:36:06.742Z,81.60
2018-11-14T12:38:34.945Z,82.40
2018-11-14T12:41:03.133Z,83.50
2018-11-14T12:43:31.331Z,83.20
2018-11-14T12:45:59.940Z,83.80
2018-11-14T12:48:28.119Z,84.50
2018-11-14T12:50:56.339Z,86.00
2018-11-14T12:53:24.550Z,86.30
2018-11-14T12:55:52.735Z,86.20
2018-11-14T12:58:20.954Z,86.20
2018-11-14T13:00:49.210Z,85.80
2018-11-14T13:03:17.430Z,85.40
2018-11-14T13:05:45.659Z,85.50
2018-11-14T13:08:13.851Z,85.50
2018-11-14T13:10:42.058Z,85.80
2018-11-14T13:13:10.283Z,85.70
2018-11-14T13:15:38.479Z,86.30
2018-11-14T13:18:06.675Z,85.50
2018-11-14T13:20:34.875Z,85.60
2018-11-14T13:23:03.079Z,85.30
2018-11-14T13:25:31.265Z,85.00
2018-11-14T13:27:59.489Z,84.40
2018-11-14T13:30:27.660Z,85.00
2018-11-14T13:32:55.984Z,85.70
2018-11-14T13:35:24.611Z,85.70
2018-11-14T13:37:52.816Z,86.30
2018-11-14T13:40:21.053Z,86.70
2018-11-14T13:42:49.227Z,86.70
2018-11-14T13:45:18.095Z,86.60
2018-11-14T13:47:46.306Z,86.90
2018-11-14T13:50:18.922Z,87.00
2018-11-14T13:52:46.943Z,86.50
2018-11-14T13:55:16.390Z,87.00
2018-11-14T13:57:45.820Z,86.80
2018-11-14T14:00:15.128Z,86.30
2018-11-14T14:02:44.116Z,86.70
2018-11-14T14:05:16.714Z,86.80
2018-11-14T14:07:44.907Z,85.80
2018-11-14T14:10:14.279Z,85.30
2018-11-14T14:12:43.967Z,84.80
2018-11-14T14:15:14.330Z,84.00
2018-11-14T14:17:43.528Z,84.00
2018-11-14T14:20:12.601Z,83.60
2018-11-14T14:22:40.921Z,83.80
2018-11-14T14:25:10.835Z,84.60
2018-11-14T14:27:39.077Z,85.20
2018-11-14T14:30:09.486Z,85.60
2018-11-14T14:32:38.387Z,85.90
2018-11-14T14:35:07.435Z,85.90
2018-11-14T14:37:35.630Z,86.80
2018-11-14T14:40:04.067Z,87.40
2018-11-14T14:42:32.251Z,87.70
2018-11-14T14:45:00.450Z,87.90
2018-11-14T14:47:28.650Z,88.00
2018-11-14T14:49:56.856Z,88.90
2018-11-14T14:52:25.025Z,89.50
2018-11-14T14:54:53.405Z,89.70
2018-11-14T14:57:21.600Z,90.10
2018-11-14T14:59:49.880Z,90.10
2018-11-14T15:02:18.078Z,90.10
2018-11-14T15:04:46.340Z,90.30
2018-11-14T15:07:14.548Z,90.60
2018-11-14T15:09:42.755Z,90.90
2018-11-14T15:12:10.937Z,91.20
2018-11-14T15:14:39.724Z,91.20
2018-11-14T15:17:07.972Z,91.20
2018-11-14T15:19:36.178Z,91.30
2018-11-14T15:22:04.696Z,91.40
2018-11-14T15:24:32.891Z,91.50
2018-11-14T15:27:01.150Z,91.70
2018-11-14T15:29:29.353Z,91.80
2018-11-14T15:31:57.556Z,91.90
2018-11-14T15:34:26.126Z,91.90
2018-11-14T15:36:54.375Z,92.20
2018-11-14T15:39:22.551Z,92.30
2018-11-14T15:41:50.864Z,92.40
2018-11-14T15:44:19.442Z,92.50
2018-11-14T15:46:47.676Z,92.50
2018-11-14T15:49:15.886Z,92.50
2018-11-14T15:51:44.219Z,92.80
2018-11-14T15:54:12.332Z,93.00
2018-11-14T15:56:40.671Z,93.30
2018-11-14T15:59:08.882Z,93.60
2018-11-14T16:01:37.164Z,93.70
2018-11-14T16:04:05.816Z,93.90
2018-11-14T16:06:34.017Z,93.90
2018-11-14T16:09:02.200Z,94.10
2018-11-14T16:11:30.422Z,94.00
2018-11-14T16:13:59.218Z,94.10
2018-11-14T16:16:27.928Z,94.20
2018-11-14T16:18:56.676Z,94.30
2018-11-14T16:21:25.035Z,94.10
2018-11-14T16:23:53.268Z,94.20
2018-11-14T16:26:21.458Z,94.20
2018-11-14T16:28:49.690Z,94.20
2018-11-14T16:31:17.900Z,94.20
2018-11-14T16:33:46.220Z,94.20
2018-11-14T16:36:14.428Z,94.20
2018-11-14T16:38:42.646Z,94.20
2018-11-14T16:41:10.847Z,94.20
2018-11-14T16:43:39.075Z,94.20
2018-11-14T16:46:07.843Z,94.20
2018-11-14T16:48:36.049Z,94.30
2018-11-14T16:51:04.294Z,94.40
2018-11-14T16:53:32.491Z,94.40
2018-11-14T16:56:00.760Z,94.70
2018-11-14T16:58:28.967Z,94.40
2018-11-14T17:00:57.179Z,94.40
2018-11-14T17:03:25.461Z,94.40
2018-11-14T17:05:53.683Z,94.50
2018-11-14T17:08:21.969Z,94.40
2018-11-14T17:10:50.339Z,94.40
2018-11-14T17:13:18.561Z,94.40
2018-11-14T17:15:46.786Z,94.50
2018-11-14T17:18:15.283Z,94.70
2018-11-14T17:20:43.497Z,94.80
2018-11-14T17:23:11.739Z,94.90
2018-11-14T17:25:39.954Z,95.00
2018-11-14T17:28:08.535Z,95.20
2018-11-14T17:30:36.775Z,95.30
2018-11-14T17:33:05.784Z,95.00
2018-11-14T17:35:33.992Z,94.90
2018-11-14T17:38:02.223Z,94.90
2018-11-14T17:40:30.829Z,94.80
2018-11-14T17:42:59.178Z,95.00
2018-11-14T17:45:29.554Z,95.10
2018-11-14T17:47:58.256Z,95.20
2018-11-14T17:50:29.022Z,95.20
2018-11-14T17:52:58.200Z,95.30
2018-11-14T17:55:26.946Z,95.30
2018-11-14T17:57:55.057Z,95.40
2018-11-14T18:00:24.606Z,95.40
2018-11-14T18:02:53.011Z,95.40
2018-11-14T18:05:22.447Z,95.40
2018-11-14T18:07:51.431Z,95.50
2018-11-14T18:10:27.335Z,95.50
2018-11-14T18:12:56.656Z,95.40
2018-11-14T18:15:24.902Z,95.30
2018-11-14T18:17:53.975Z,95.10
2018-11-14T18:20:25.089Z,95.00
2018-11-14T18:22:53.776Z,94.90
2018-11-14T18:25:22.039Z,94.80
2018-11-14T18:27:50.348Z,94.80
2018-11-14T18:30:23.534Z,94.70
2018-11-14T18:32:52.308Z,94.80
2018-11-14T18:35:22.155Z,94.90
2018-11-14T18:37:51.326Z,95.00
2018-11-14T18:40:20.787Z,95.20
2018-11-14T18:42:49.109Z,95.30
2018-11-14T18:45:19.543Z,95.30
2018-11-14T18:47:48.153Z,95.40
2018-11-14T18:50:17.137Z,95.30
2018-11-14T18:52:46.095Z,95.30
2018-11-14T18:55:15.535Z,95.20
2018-11-14T18:57:44.122Z,95.20
2018-11-14T19:00:14.902Z,95.10
2018-11-14T19:02:43.371Z,95.00
2018-11-14T19:05:12.313Z,95.00
2018-11-14T19:07:41.058Z,95.00
2018-11-14T19:10:11.567Z,95.00
2018-11-14T19:12:40.352Z,95.00
2018-11-14T19:15:12.355Z,95.00
2018-11-14T19:17:40.861Z,95.10
2018-11-14T19:20:11.547Z,95.10
2018-11-14T19:22:39.853Z,95.00
2018-11-14T19:25:10.655Z,94.90
2018-11-14T19:27:38.936Z,94.90
2018-11-14T19:30:10.388Z,94.90
2018-11-14T19:32:38.748Z,94.90
2018-11-14T19:35:08.989Z,95.00
2018-11-14T19:37:37.256Z,95.00
2018-11-14T19:40:07.700Z,95.00
2018-11-14T19:42:36.006Z,95.00
2018-11-14T19:45:04.950Z,94.90
2018-11-14T19:47:33.416Z,94.90
2018-11-14T19:50:01.635Z,94.90
2018-11-14T19:52:29.880Z,95.10
2018-11-14T19:54:58.102Z,95.20
2018-11-14T19:57:26.351Z,95.20
2018-11-14T19:59:54.611Z,95.20
2018-11-14T20:02:23.936Z,95.10
2018-11-14T20:04:52.136Z,95.10
2018-11-14T20:07:20.360Z,95.00
2018-11-14T20:09:48.863Z,94.90
2018-11-14T20:12:17.100Z,95.00
2018-11-14T20:14:45.439Z,94.90
2018-11-14T20:17:13.688Z,94.90
2018-11-14T20:19:41.971Z,95.00
2018-11-14T20:22:10.186Z,95.10
2018-11-14T20:24:38.392Z,95.20
2018-11-14T20:27:06.645Z,95.30
2018-11-14T20:29:34.864Z,95.50
2018-11-14T20:32:03.126Z,95.60
2018-11-14T20:34:31.352Z,95.60
2018-11-14T20:36:59.820Z,95.50
2018-11-14T20:39:28.021Z,95.50
2018-11-14T20:41:56.368Z,95.40
2018-11-14T20:44:24.581Z,95.30
2018-11-14T20:46:52.843Z,95.20
2018-11-14T20:49:21.581Z,95.20
2018-11-14T20:51:49.674Z,95.20
2018-11-14T20:54:17.869Z,95.20
2018-11-14T20:56:46.133Z,95.10
2018-11-14T20:59:14.349Z,95.10
2018-11-14T21:01:42.571Z,95.10
2018-11-14T21:04:10.738Z,95.20
2018-11-14T21:06:38.897Z,95.20
2018-11-14T21:09:08.386Z,95.20
2018-11-14T21:11:36.554Z,95.10
2018-11-14T21:14:04.826Z,95.20
2018-11-14T21:16:32.995Z,95.00
2018-11-14T21:19:01.167Z,94.80
2018-11-14T21:21:29.340Z,94.80
2018-11-14T21:23:57.515Z,94.90
2018-11-14T21:26:25.722Z,95.00
2018-11-14T21:28:54.062Z,95.10
2018-11-14T21:31:22.215Z,95.10
2018-11-14T21:33:50.396Z,95.20
2018-11-14T21:36:18.550Z,95.20
2018-11-14T21:38:46.729Z,95.20
2018-11-14T21:41:14.906Z,95.20
2018-11-14T21:43:43.099Z,95.20
2018-11-14T21:46:11.282Z,95.10
2018-11-14T21:48:39.474Z,95.20
2018-11-14T21:51:07.634Z,95.40
2018-11-14T21:53:35.823Z,95.30
2018-11-14T21:56:03.998Z,95.30
2018-11-14T21:58:32.162Z,95.40
2018-11-14T22:01:00.331Z,95.30
2018-11-14T22:03:28.552Z,95.20
2018-11-14T22:05:56.702Z,95.40
2018-11-14T22:08:24.875Z,95.50
2018-11-14T22:10:53.047Z,95.50
2018-11-14T22:13:21.235Z,95.50
2018-11-14T22:15:49.422Z,95.50
2018-11-14T22:18:17.605Z,95.50
2018-11-14T22:20:45.781Z,95.50
2018-11-14T22:23:13.983Z,95.50
2018-11-14T22:25:42.158Z,95.50
2018-11-14T22:28:10.466Z,95.40
2018-11-14T22:30:38.567Z,95.30
2018-11-14T22:33:06.751Z,95.60
2018-11-14T22:35:34.925Z,95.30
2018-11-14T22:38:03.113Z,95.30
2018-11-14T22:40:32.118Z,95.40
2018-11-14T22:43:00.339Z,95.40
2018-11-14T22:45:30.863Z,95.30
2018-11-14T22:47:59.047Z,95.30
2018-11-14T22:50:27.390Z,95.30
2018-11-14T22:52:55.563Z,95.30
2018-11-14T22:55:24.688Z,95.30
2018-11-14T22:57:53.274Z,95.30
2018-11-14T23:00:53.729Z,95.30
2018-11-14T23:03:21.909Z,95.40
2018-11-14T23:05:50.079Z,95.40
2018-11-14T23:08:18.254Z,95.50
2018-11-14T23:10:46.425Z,95.40
2018-11-14T23:13:14.620Z,95.40
2018-11-14T23:15:42.861Z,95.50
2018-11-14T23:18:10.974Z,95.60
2018-11-14T23:20:39.158Z,95.70
2018-11-14T23:23:07.355Z,95.80
2018-11-14T23:25:35.502Z,95.70
2018-11-14T23:28:03.691Z,95.60
2018-11-14T23:30:31.858Z,95.70
2018-11-14T23:33:00.035Z,95.90
2018-11-14T23:35:29.206Z,95.60
2018-11-14T23:37:59.487Z,95.60
2018-11-14T23:40:27.952Z,95.60
2018-11-14T23:42:56.136Z,95.60
2018-11-14T23:45:25.027Z,95.70
2018-11-14T23:47:53.289Z,95.80
2018-11-14T23:50:23.730Z,96.10
2018-11-14T23:52:52.810Z,95.90
2018-11-14T23:55:21.719Z,95.90
2018-11-14T23:57:49.894Z,96.00
